Time;durP1;ratioP1;P1;durP2;ratioP2;P2;SDS_P1;SDS_P2;PMS_P1;PMS_P2;Temp;Humidity;BMP_temperature;BMP_pressure;BME280_temperature;BME280_humidity;BME280_pressure;Samples;Min_cycle;Max_cycle;Signal;HPM_P1;HPM_P2
2024/03/07 00:02:11;;;;;;;1.15;1.10;;;5.30;99.90;;;;;;5053337;28;20407;-61
2024/03/07 00:04:36;;;;;;;1.63;1.40;;;5.30;99.90;;;;;;5053259;28;20191;-61
2024/03/07 00:07:07;;;;;;;1.70;1.57;;;5.30;99.90;;;;;;5053322;28;20405;-61
2024/03/07 00:09:34;;;;;;;1.52;1.42;;;5.30;99.90;;;;;;5053307;28;20226;-61
2024/03/07 00:12:00;;;;;;;2.55;1.63;;;5.30;99.90;;;;;;5053235;28;20183;-61
2024/03/07 00:14:26;;;;;;;1.65;1.55;;;5.20;99.90;;;;;;5053065;28;20194;-60
2024/03/07 00:16:57;;;;;;;2.20;1.55;;;5.30;99.90;;;;;;5053003;28;20190;-61
2024/03/07 00:19:26;;;;;;;2.35;2.15;;;5.20;99.90;;;;;;5052793;28;20167;-61
2024/03/07 00:21:59;;;;;;;2.85;2.00;;;5.20;99.90;;;;;;5052958;28;20207;-61
2024/03/07 00:24:24;;;;;;;3.13;1.95;;;5.20;99.90;;;;;;5052926;28;20191;-61
2024/03/07 00:26:51;;;;;;;2.50;2.30;;;5.20;99.90;;;;;;5052981;28;20174;-61
2024/03/07 00:29:19;;;;;;;1.70;1.60;;;5.20;99.90;;;;;;5052560;28;20174;-61
2024/03/07 00:31:48;;;;;;;1.75;1.63;;;5.20;99.90;;;;;;5052734;28;20187;-61
2024/03/07 00:34:16;;;;;;;1.75;1.60;;;5.20;99.90;;;;;;5052728;28;20687;-61
2024/03/07 00:36:42;;;;;;;2.22;1.70;;;5.30;99.90;;;;;;5052617;28;20223;-61
2024/03/07 00:39:08;;;;;;;4.35;2.35;;;5.30;99.90;;;;;;5052786;28;20174;-61
2024/03/07 00:41:34;;;;;;;7.67;3.63;;;5.40;99.90;;;;;;5051703;28;20178;-61
2024/03/07 00:43:59;;;;;;;6.97;4.82;;;5.40;99.90;;;;;;5052198;28;20737;-60
2024/03/07 00:46:25;;;;;;;8.53;5.90;;;5.30;99.90;;;;;;5052498;28;20231;-60
2024/03/07 00:48:51;;;;;;;3.67;2.60;;;5.30;99.90;;;;;;5052243;28;20175;-61
2024/03/07 00:51:16;;;;;;;3.37;3.07;;;5.30;99.90;;;;;;5052496;28;20544;-61
2024/03/07 00:53:42;;;;;;;2.57;2.37;;;5.30;99.90;;;;;;5052284;28;20240;-61
2024/03/07 00:56:07;;;;;;;3.70;2.60;;;5.20;99.90;;;;;;5052278;28;20194;-60
2024/03/07 00:58:34;;;;;;;5.10;3.07;;;5.20;99.90;;;;;;5051999;28;20167;-61
2024/03/07 01:01:00;;;;;;;4.10;2.95;;;5.20;99.90;;;;;;5052284;28;20187;-61
2024/03/07 01:03:26;;;;;;;4.27;2.97;;;5.20;99.90;;;;;;5052090;28;20245;-60
2024/03/07 01:05:52;;;;;;;3.38;2.88;;;5.30;99.90;;;;;;5052160;28;20417;-61
2024/03/07 01:08:18;;;;;;;4.00;3.00;;;5.20;99.90;;;;;;5051926;28;20181;-61
2024/03/07 01:10:44;;;;;;;4.13;3.00;;;5.10;99.90;;;;;;5052138;28;20608;-60
2024/03/07 01:13:18;;;;;;;3.40;2.37;;;5.20;99.90;;;;;;5051822;28;20194;-61
2024/03/07 01:15:45;;;;;;;2.95;2.10;;;5.20;99.90;;;;;;5052067;28;20197;-61
2024/03/07 01:18:10;;;;;;;5.15;3.00;;;5.20;99.90;;;;;;5051742;28;20174;-60
2024/03/07 01:20:36;;;;;;;3.03;2.47;;;5.30;99.90;;;;;;5052022;28;20531;-61
2024/03/07 01:23:02;;;;;;;4.57;2.70;;;5.40;99.90;;;;;;5051847;28;20166;-61
2024/03/07 01:25:27;;;;;;;3.60;2.47;;;5.40;99.90;;;;;;5051960;28;20177;-61
2024/03/07 01:27:53;;;;;;;3.00;2.80;;;5.40;99.90;;;;;;5051470;28;20658;-61
2024/03/07 01:30:19;;;;;;;3.40;2.83;;;5.50;99.90;;;;;;5051837;28;20178;-61
2024/03/07 01:32:44;;;;;;;3.73;2.17;;;5.40;99.90;;;;;;5051810;28;20188;-61
2024/03/07 01:35:10;;;;;;;3.33;2.93;;;5.40;99.90;;;;;;5051625;28;20489;-60
2024/03/07 01:37:35;;;;;;;3.80;2.23;;;5.30;99.90;;;;;;5051663;28;20171;-61
2024/03/07 01:40:05;;;;;;;3.57;2.70;;;5.40;99.90;;;;;;5051681;28;20169;-61
2024/03/07 01:42:30;;;;;;;5.60;3.15;;;5.40;99.90;;;;;;5051567;28;20173;-60
2024/03/07 01:44:56;;;;;;;5.03;3.27;;;5.40;99.90;;;;;;5051548;28;20212;-60
2024/03/07 01:47:22;;;;;;;4.80;2.90;;;5.60;99.90;;;;;;5051777;28;20449;-60
2024/03/07 01:49:48;;;;;;;5.67;3.40;;;5.60;99.90;;;;;;5051420;28;20714;-61
2024/03/07 01:52:14;;;;;;;3.97;2.83;;;5.70;99.90;;;;;;5053016;28;20254;-61
2024/03/07 01:54:40;;;;;;;5.47;2.78;;;5.70;99.90;;;;;;5055685;28;20436;-61
2024/03/07 01:57:06;;;;;;;4.83;2.73;;;5.70;99.90;;;;;;5055543;28;20205;-61
2024/03/07 01:59:33;;;;;;;3.95;3.47;;;5.70;99.90;;;;;;5055422;28;20166;-61
2024/03/07 02:01:58;;;;;;;10.88;4.45;;;5.70;99.90;;;;;;5055609;28;20174;-61
2024/03/07 02:04:24;;;;;;;5.97;3.53;;;5.60;99.90;;;;;;5055592;28;20543;-60
2024/03/07 02:06:53;;;;;;;8.73;5.23;;;5.60;99.90;;;;;;5055579;28;20400;-61
2024/03/07 02:09:19;;;;;;;7.35;4.57;;;5.70;99.90;;;;;;5055178;28;20185;-60
2024/03/07 02:11:48;;;;;;;6.47;5.53;;;5.80;99.90;;;;;;5055354;28;20227;-60
2024/03/07 02:14:14;;;;;;;8.65;4.95;;;5.70;99.90;;;;;;5055376;28;20198;-61
2024/03/07 02:16:40;;;;;;;6.23;5.07;;;5.70;99.90;;;;;;5055338;28;20623;-61
2024/03/07 02:19:07;;;;;;;8.80;6.10;;;5.60;99.90;;;;;;5055063;28;20921;-61
2024/03/07 02:21:33;;;;;;;7.85;5.53;;;5.70;99.90;;;;;;5055305;28;20167;-60
2024/03/07 02:23:58;;;;;;;9.80;5.77;;;5.80;99.90;;;;;;5055132;28;20196;-61
2024/03/07 02:26:24;;;;;;;10.77;5.83;;;5.80;99.90;;;;;;5055413;28;20892;-61
2024/03/07 02:28:49;;;;;;;7.13;5.23;;;5.80;99.90;;;;;;5054926;28;20177;-61
2024/03/07 02:31:15;;;;;;;10.17;5.90;;;5.70;99.90;;;;;;5055115;28;20517;-61
2024/03/07 02:33:41;;;;;;;10.00;5.40;;;5.60;99.90;;;;;;5055006;28;20206;-61
2024/03/07 02:36:07;;;;;;;7.77;4.90;;;5.50;99.90;;;;;;5055005;28;20190;-61
2024/03/07 02:38:34;;;;;;;9.40;4.90;;;5.40;99.90;;;;;;5054613;28;20483;-61
2024/03/07 02:41:00;;;;;;;10.35;6.10;;;5.40;99.90;;;;;;5053569;28;20182;-61
2024/03/07 02:43:25;;;;;;;9.30;4.40;;;5.50;99.90;;;;;;5054800;28;20208;-61
2024/03/07 02:45:51;;;;;;;11.40;5.80;;;5.60;99.90;;;;;;5054844;28;20646;-60
2024/03/07 02:48:18;;;;;;;10.07;6.90;;;5.60;99.90;;;;;;5054560;28;20227;-61
2024/03/07 02:50:43;;;;;;;7.93;5.22;;;5.30;99.90;;;;;;5055213;28;20640;-61
2024/03/07 02:53:09;;;;;;;9.50;6.37;;;5.40;99.90;;;;;;5054547;28;20287;-60
2024/03/07 02:55:35;;;;;;;9.47;5.93;;;5.30;99.90;;;;;;5054603;28;20224;-61
2024/03/07 02:58:00;;;;;;;10.93;5.07;;;5.30;99.90;;;;;;5054374;28;20170;-61
2024/03/07 03:00:26;;;;;;;11.10;5.60;;;5.40;99.90;;;;;;5054601;28;20181;-61
2024/03/07 03:02:52;;;;;;;10.47;6.40;;;5.40;99.90;;;;;;5054110;28;20170;-60
2024/03/07 03:05:18;;;;;;;9.70;6.80;;;5.50;99.90;;;;;;5053755;28;20178;-61
2024/03/07 03:07:52;;;;;;;19.43;6.40;;;5.60;99.90;;;;;;5054101;28;20187;-61
2024/03/07 03:10:20;;;;;;;21.15;6.63;;;5.50;99.90;;;;;;5054453;28;20439;-60
2024/03/07 03:12:47;;;;;;;9.95;5.80;;;5.50;99.90;;;;;;5054443;28;20210;-61
2024/03/07 03:15:14;;;;;;;13.55;7.82;;;5.60;99.90;;;;;;5054158;28;20193;-61
2024/03/07 03:17:40;;;;;;;11.68;7.18;;;5.60;99.90;;;;;;5053943;28;20179;-61
2024/03/07 03:20:15;;;;;;;10.82;6.13;;;5.60;99.90;;;;;;5054197;28;20162;-61
2024/03/07 03:22:43;;;;;;;8.45;6.47;;;5.70;99.90;;;;;;5054152;28;20167;-61
2024/03/07 03:25:09;;;;;;;13.48;6.93;;;5.60;99.90;;;;;;5054044;28;20697;-60
2024/03/07 03:27:35;;;;;;;9.03;6.53;;;5.60;99.90;;;;;;5053965;28;20174;-61
2024/03/07 03:30:00;;;;;;;13.50;7.43;;;5.60;99.90;;;;;;5053955;28;20197;-61
2024/03/07 03:32:26;;;;;;;14.00;7.00;;;5.70;99.90;;;;;;5053733;28;20253;-61
2024/03/07 03:34:52;;;;;;;8.40;6.33;;;5.80;99.90;;;;;;5053716;28;20190;-60
2024/03/07 03:37:18;;;;;;;6.85;5.28;;;5.80;99.90;;;;;;5053807;28;20292;-60
2024/03/07 03:39:44;;;;;;;10.80;5.97;;;5.80;99.90;;;;;;5053369;28;20217;-61
2024/03/07 03:42:09;;;;;;;13.00;7.43;;;5.80;99.90;;;;;;5053463;28;20415;-61
2024/03/07 03:44:35;;;;;;;12.10;6.50;;;5.80;99.90;;;;;;5053650;28;20205;-61
2024/03/07 03:47:02;;;;;;;12.53;6.40;;;5.70;99.90;;;;;;5053731;28;20557;-61
2024/03/07 03:49:27;;;;;;;13.35;8.02;;;5.80;99.90;;;;;;5053012;28;20645;-61
2024/03/07 03:51:53;;;;;;;13.73;8.60;;;5.80;99.90;;;;;;5053337;28;20172;-61
2024/03/07 03:54:19;;;;;;;11.70;6.53;;;5.70;99.90;;;;;;5053464;28;20190;-60
2024/03/07 03:56:45;;;;;;;10.15;7.10;;;5.70;99.90;;;;;;5052286;28;20188;-61
2024/03/07 03:59:10;;;;;;;12.37;8.43;;;5.70;99.90;;;;;;5053376;28;20585;-61
2024/03/07 04:01:36;;;;;;;13.10;7.80;;;5.80;99.90;;;;;;5053424;28;20173;-61
2024/03/07 04:04:01;;;;;;;13.27;7.73;;;5.70;99.90;;;;;;5053536;28;20188;-61
2024/03/07 04:06:27;;;;;;;10.37;6.87;;;5.80;99.90;;;;;;5052961;28;20683;-61
2024/03/07 04:08:55;;;;;;;13.80;8.20;;;5.70;99.90;;;;;;5052912;28;20257;-61
2024/03/07 04:11:20;;;;;;;11.95;7.97;;;5.70;99.90;;;;;;5053011;28;20170;-60
2024/03/07 04:13:46;;;;;;;11.07;7.83;;;5.70;99.90;;;;;;5053059;28;20198;-61
2024/03/07 04:16:12;;;;;;;16.53;8.10;;;5.60;99.90;;;;;;5052863;28;20198;-61
2024/03/07 04:18:38;;;;;;;12.53;8.47;;;5.60;99.90;;;;;;5052609;28;20166;-61
2024/03/07 04:21:03;;;;;;;14.38;8.25;;;5.60;99.90;;;;;;5058267;28;20182;-61
2024/03/07 04:23:29;;;;;;;15.73;8.33;;;5.50;99.90;;;;;;5062078;28;20194;-61
2024/03/07 04:25:56;;;;;;;10.90;7.50;;;5.40;99.90;;;;;;5072753;28;20188;-60
2024/03/07 04:28:22;;;;;;;13.50;8.07;;;5.30;99.90;;;;;;5072240;28;20257;-61
2024/03/07 04:30:49;;;;;;;15.05;8.60;;;5.40;99.90;;;;;;5072851;28;20199;-61
2024/03/07 04:33:14;;;;;;;13.75;9.18;;;5.40;99.90;;;;;;5072650;28;20701;-60
2024/03/07 04:35:40;;;;;;;19.63;12.47;;;5.40;99.90;;;;;;5072404;28;20194;-61
2024/03/07 04:38:11;;;;;;;19.43;11.10;;;5.40;99.90;;;;;;5072386;28;20652;-60
2024/03/07 04:40:37;;;;;;;16.17;9.13;;;5.40;99.90;;;;;;5072502;28;20187;-60
2024/03/07 04:43:03;;;;;;;14.48;8.77;;;5.40;99.90;;;;;;5072330;28;20704;-60
2024/03/07 04:45:29;;;;;;;15.73;8.00;;;5.40;99.90;;;;;;5072700;28;20185;-62
2024/03/07 04:47:54;;;;;;;16.03;7.80;;;5.50;99.90;;;;;;5072300;28;20431;-62
2024/03/07 04:50:20;;;;;;;15.20;8.23;;;5.50;99.90;;;;;;5072477;28;20183;-62
2024/03/07 04:52:46;;;;;;;14.37;10.57;;;5.50;99.90;;;;;;5072363;28;20250;-62
2024/03/07 04:55:12;;;;;;;12.83;8.80;;;5.60;99.90;;;;;;5072081;28;20210;-62
2024/03/07 04:57:40;;;;;;;12.30;8.02;;;5.60;99.90;;;;;;5072046;28;20454;-62
2024/03/07 05:00:13;;;;;;;12.95;7.60;;;5.70;99.90;;;;;;5072385;28;20186;-61
2024/03/07 05:02:44;;;;;;;20.35;8.73;;;5.70;99.90;;;;;;5072193;28;20169;-62
2024/03/07 05:05:10;;;;;;;17.45;9.05;;;5.80;99.90;;;;;;5032346;28;20200;-62
2024/03/07 05:07:36;;;;;;;17.10;9.55;;;5.80;99.90;;;;;;5032017;28;20254;-62
2024/03/07 05:10:06;;;;;;;15.03;8.80;;;5.70;99.90;;;;;;5032190;28;20264;-62
2024/03/07 05:12:33;;;;;;;17.77;8.85;;;5.80;99.90;;;;;;5032156;28;20459;-62
2024/03/07 05:14:59;;;;;;;18.53;9.70;;;5.80;99.90;;;;;;5032071;28;20192;-62
2024/03/07 05:17:24;;;;;;;16.40;8.93;;;5.80;99.90;;;;;;5032123;28;20823;-62
2024/03/07 05:19:50;;;;;;;11.93;8.47;;;5.70;99.90;;;;;;5031909;28;20224;-62
2024/03/07 05:22:17;;;;;;;14.03;8.93;;;5.70;99.90;;;;;;5031922;28;20175;-62
2024/03/07 05:24:43;;;;;;;11.57;8.10;;;5.70;99.90;;;;;;5031985;28;20662;-62
2024/03/07 05:27:11;;;;;;;15.83;9.50;;;5.70;99.90;;;;;;5031535;28;20229;-62
2024/03/07 05:29:37;;;;;;;13.88;8.30;;;5.70;99.90;;;;;;5031663;28;20230;-62
2024/03/07 05:32:25;;;;;;;14.10;9.27;;;5.60;99.90;;;;;;5031876;28;20198;-62
2024/03/07 05:34:53;;;;;;;17.33;8.73;;;5.50;99.90;;;;;;5031719;28;20202;-62
2024/03/07 05:37:21;;;;;;;14.90;9.60;;;5.60;99.90;;;;;;5031732;28;20215;-62
2024/03/07 05:39:50;;;;;;;14.40;9.95;;;5.60;99.90;;;;;;5031623;28;20181;-62
2024/03/07 05:42:16;;;;;;;15.07;8.88;;;5.70;99.90;;;;;;5031746;28;20253;-62
2024/03/07 05:44:42;;;;;;;13.30;8.82;;;5.60;99.90;;;;;;5031591;28;20216;-62
2024/03/07 05:47:08;;;;;;;18.00;11.03;;;5.70;99.90;;;;;;5031672;28;20717;-62
2024/03/07 05:49:36;;;;;;;22.00;11.55;;;5.60;99.90;;;;;;5031470;28;20418;-62
2024/03/07 05:52:02;;;;;;;27.10;11.30;;;5.60;99.90;;;;;;5031768;28;20180;-62
2024/03/07 05:54:29;;;;;;;13.32;9.73;;;5.50;99.90;;;;;;5031625;28;20230;-62
2024/03/07 05:56:55;;;;;;;20.08;12.70;;;5.50;99.90;;;;;;5031533;28;20218;-62
2024/03/07 05:59:21;;;;;;;14.00;9.23;;;5.60;99.90;;;;;;5031812;28;20170;-62
2024/03/07 06:01:48;;;;;;;15.40;9.53;;;5.70;99.90;;;;;;5031474;28;20210;-62
2024/03/07 06:04:15;;;;;;;20.85;10.30;;;5.70;99.90;;;;;;5031482;28;20480;-62
2024/03/07 06:06:41;;;;;;;14.48;9.30;;;5.70;99.90;;;;;;5031513;28;20175;-62
2024/03/07 06:09:08;;;;;;;17.52;11.05;;;5.60;99.90;;;;;;5031314;28;20206;-62
2024/03/07 06:11:35;;;;;;;16.45;10.75;;;5.30;99.90;;;;;;5031424;28;20179;-62
2024/03/07 06:14:05;;;;;;;15.55;9.93;;;5.30;99.90;;;;;;5031257;28;20195;-62
2024/03/07 06:16:32;;;;;;;15.93;11.00;;;5.30;99.90;;;;;;5031342;28;20301;-62
2024/03/07 06:18:59;;;;;;;17.52;11.25;;;5.30;99.90;;;;;;5031329;28;20605;-62
2024/03/07 06:21:25;;;;;;;16.80;9.18;;;5.40;99.90;;;;;;5031135;28;20552;-62
2024/03/07 06:23:59;;;;;;;15.87;11.00;;;5.40;99.90;;;;;;5031360;28;20187;-62
2024/03/07 06:26:37;;;;;;;15.75;9.35;;;5.50;99.90;;;;;;5031312;28;20179;-62
2024/03/07 06:29:07;;;;;;;17.17;10.77;;;5.50;99.90;;;;;;5031232;28;20214;-62
2024/03/07 06:31:37;;;;;;;19.90;10.07;;;5.60;99.90;;;;;;5030419;28;20199;-62
2024/03/07 06:34:03;;;;;;;21.20;9.27;;;5.60;99.90;;;;;;5031221;28;20217;-62
2024/03/07 06:36:29;;;;;;;20.60;12.90;;;5.60;99.90;;;;;;5031102;28;20639;-62
2024/03/07 06:38:54;;;;;;;15.10;9.90;;;5.40;99.90;;;;;;5033190;28;20410;-62
2024/03/07 06:41:20;;;;;;;14.53;10.20;;;4.80;99.90;;;;;;5034510;28;20175;-62
2024/03/07 06:43:46;;;;;;;18.45;10.02;;;4.90;99.90;;;;;;5034232;28;20198;-63
2024/03/07 06:46:12;;;;;;;18.27;11.93;;;4.90;99.90;;;;;;5034649;28;20266;-62
2024/03/07 06:48:41;;;;;;;15.67;10.90;;;4.90;99.90;;;;;;5034528;28;20262;-62
2024/03/07 06:51:07;;;;;;;18.73;10.98;;;5.00;99.90;;;;;;5034547;28;20171;-62
2024/03/07 06:53:33;;;;;;;20.10;10.53;;;4.60;99.90;;;;;;5034632;28;20203;-62
2024/03/07 06:55:59;;;;;;;18.50;11.13;;;4.80;99.90;;;;;;5041909;28;20460;-61
2024/03/07 06:58:26;;;;;;;23.27;11.60;;;5.00;99.90;;;;;;5054505;28;20260;-62
2024/03/07 07:00:54;;;;;;;20.52;10.20;;;5.10;99.90;;;;;;5054500;28;20951;-62
2024/03/07 07:03:23;;;;;;;14.13;8.88;;;5.20;99.90;;;;;;5054273;28;20200;-62
2024/03/07 07:05:49;;;;;;;18.17;9.05;;;5.20;99.90;;;;;;5054611;28;20656;-62
2024/03/07 07:08:15;;;;;;;17.02;8.90;;;5.40;99.90;;;;;;5053978;28;20174;-62
2024/03/07 07:10:42;;;;;;;19.57;10.30;;;5.40;99.90;;;;;;5054407;28;20765;-62
2024/03/07 07:13:13;;;;;;;19.88;11.50;;;5.30;99.90;;;;;;5054076;28;20404;-62
2024/03/07 07:15:38;;;;;;;20.55;10.48;;;5.20;99.90;;;;;;5054402;28;20297;-62
2024/03/07 07:18:07;;;;;;;15.50;10.87;;;5.20;99.90;;;;;;5053926;28;20198;-62
2024/03/07 07:20:34;;;;;;;14.05;9.63;;;5.60;99.90;;;;;;5054244;28;20405;-62
2024/03/07 07:23:02;;;;;;;19.80;10.32;;;5.90;99.90;;;;;;5053995;28;20177;-62
2024/03/07 07:25:27;;;;;;;13.32;9.10;;;6.10;99.90;;;;;;5053617;28;20180;-62
2024/03/07 07:27:53;;;;;;;16.77;9.40;;;6.30;99.90;;;;;;5053879;28;20548;-62
2024/03/07 07:30:26;;;;;;;18.13;10.23;;;6.30;99.80;;;;;;5054140;28;20171;-62
2024/03/07 07:32:53;;;;;;;15.00;8.80;;;6.40;99.50;;;;;;5053966;28;20792;-62
2024/03/07 07:35:20;;;;;;;15.70;10.05;;;6.40;99.20;;;;;;5053813;28;20554;-62
2024/03/07 07:37:51;;;;;;;12.93;9.95;;;6.30;99.80;;;;;;5053202;28;20191;-62
2024/03/07 07:40:22;;;;;;;17.52;9.57;;;6.40;99.40;;;;;;5053827;28;20180;-62
2024/03/07 07:42:51;;;;;;;17.83;11.60;;;6.40;98.90;;;;;;5053628;28;20176;-62
2024/03/07 07:45:18;;;;;;;15.52;10.40;;;6.50;98.70;;;;;;5053841;28;20563;-62
2024/03/07 07:47:45;;;;;;;17.33;8.70;;;6.60;97.90;;;;;;5053289;28;20201;-62
2024/03/07 07:50:13;;;;;;;17.00;11.35;;;6.60;97.60;;;;;;5052534;28;20178;-62
2024/03/07 07:52:45;;;;;;;14.02;8.65;;;6.60;96.90;;;;;;5053749;28;20176;-62
2024/03/07 07:55:14;;;;;;;11.05;8.93;;;6.60;97.00;;;;;;5052661;28;20200;-62
2024/03/07 07:57:43;;;;;;;14.95;10.30;;;6.60;97.20;;;;;;5053142;28;20192;-63
2024/03/07 08:00:23;;;;;;;16.38;9.82;;;6.50;96.80;;;;;;5053245;28;20178;-62
2024/03/07 08:02:58;;;;;;;15.98;10.32;;;6.60;97.00;;;;;;5052919;28;20226;-62
2024/03/07 08:05:28;;;;;;;18.17;9.13;;;6.80;96.80;;;;;;5053199;28;20184;-62
2024/03/07 08:07:57;;;;;;;16.35;10.50;;;6.50;96.80;;;;;;5052631;28;20266;-62
2024/03/07 08:10:28;;;;;;;15.07;9.63;;;6.60;97.60;;;;;;5053059;28;20174;-62
2024/03/07 08:12:54;;;;;;;17.92;10.88;;;6.70;96.60;;;;;;5052690;28;20536;-62
2024/03/07 08:15:20;;;;;;;14.73;10.73;;;6.80;96.20;;;;;;5052757;28;20388;-62
2024/03/07 08:17:47;;;;;;;14.33;8.70;;;7.00;96.60;;;;;;5052889;28;20181;-62
2024/03/07 08:20:23;;;;;;;22.15;11.25;;;7.10;95.60;;;;;;5052992;28;20177;-62
2024/03/07 08:22:52;;;;;;;21.42;9.85;;;7.30;96.30;;;;;;5052876;28;20166;-62
2024/03/07 08:25:23;;;;;;;16.60;10.02;;;7.40;95.70;;;;;;5052788;28;20252;-62
2024/03/07 08:27:50;;;;;;;14.77;9.35;;;7.40;95.40;;;;;;5052457;28;20231;-62
2024/03/07 08:30:16;;;;;;;12.00;9.32;;;7.40;95.40;;;;;;5052654;28;20180;-62
2024/03/07 08:32:51;;;;;;;15.55;8.90;;;7.10;95.70;;;;;;5052567;28;20249;-62
2024/03/07 08:35:17;;;;;;;17.98;10.30;;;7.10;95.80;;;;;;5052556;28;20181;-62
2024/03/07 08:37:54;;;;;;;16.38;11.60;;;7.00;95.50;;;;;;5052133;28;20256;-62
2024/03/07 08:40:21;;;;;;;15.68;9.98;;;6.90;95.30;;;;;;5052717;28;20173;-61
2024/03/07 08:42:50;;;;;;;15.60;11.18;;;6.70;95.80;;;;;;5052512;28;20206;-62
2024/03/07 08:45:19;;;;;;;14.60;10.75;;;6.80;96.30;;;;;;5052151;28;20296;-62
2024/03/07 08:47:46;;;;;;;16.02;10.02;;;6.90;96.30;;;;;;5051894;28;20169;-62
2024/03/07 08:50:13;;;;;;;18.23;12.02;;;7.10;96.80;;;;;;5052417;28;20540;-62
2024/03/07 08:52:40;;;;;;;12.98;8.95;;;7.40;95.90;;;;;;5052051;28;20177;-62
2024/03/07 08:55:09;;;;;;;13.57;7.95;;;7.90;94.90;;;;;;5052276;28;20490;-62
2024/03/07 08:57:36;;;;;;;13.45;10.88;;;8.40;94.20;;;;;;5051925;28;20235;-62
2024/03/07 09:00:08;;;;;;;16.90;11.13;;;8.50;93.10;;;;;;5051402;28;20231;-62
2024/03/07 09:02:34;;;;;;;16.80;9.73;;;8.10;93.40;;;;;;5051092;28;20202;-62
2024/03/07 09:05:01;;;;;;;12.85;9.90;;;8.30;93.70;;;;;;5051883;28;20190;-61
2024/03/07 09:07:26;;;;;;;15.48;9.82;;;8.30;93.40;;;;;;5051941;28;20170;-62
2024/03/07 09:09:52;;;;;;;15.17;10.00;;;8.40;93.90;;;;;;5051661;28;20162;-62
2024/03/07 09:12:20;;;;;;;15.70;10.60;;;8.50;93.20;;;;;;5051730;28;20200;-62
2024/03/07 09:14:45;;;;;;;19.77;12.15;;;8.60;93.20;;;;;;5051942;28;20185;-62
2024/03/07 09:17:12;;;;;;;15.60;9.27;;;8.30;92.40;;;;;;5051668;28;20202;-62
2024/03/07 09:19:37;;;;;;;12.38;10.00;;;8.10;92.60;;;;;;5051262;28;20174;-62
2024/03/07 09:22:03;;;;;;;16.23;9.20;;;8.00;92.70;;;;;;5045606;28;20185;-62
2024/03/07 09:24:31;;;;;;;17.75;11.40;;;7.70;93.00;;;;;;5046891;28;20956;-61
2024/03/07 09:26:57;;;;;;;14.07;10.43;;;7.40;93.60;;;;;;5050212;28;20615;-62
2024/03/07 09:29:23;;;;;;;17.10;10.60;;;7.50;94.10;;;;;;5051480;28;20200;-62
2024/03/07 09:31:53;;;;;;;18.75;11.98;;;7.30;94.20;;;;;;5050083;28;20185;-61
2024/03/07 09:34:20;;;;;;;15.27;9.13;;;7.30;94.10;;;;;;5050858;28;20718;-61
2024/03/07 09:36:46;;;;;;;16.17;10.20;;;7.30;94.30;;;;;;5048591;28;20304;-62
2024/03/07 09:39:12;;;;;;;17.65;9.20;;;7.10;95.70;;;;;;5047692;28;20181;-61
2024/03/07 09:41:39;;;;;;;13.50;8.87;;;7.40;94.70;;;;;;5043013;28;20170;-61
2024/03/07 09:44:05;;;;;;;21.52;10.98;;;7.80;95.70;;;;;;5043500;28;20251;-62
2024/03/07 09:46:31;;;;;;;15.13;8.00;;;8.40;95.00;;;;;;5051544;28;20200;-62
2024/03/07 09:48:58;;;;;;;12.98;7.45;;;8.80;94.80;;;;;;5050921;28;20249;-62
2024/03/07 09:51:25;;;;;;;13.50;9.45;;;9.20;94.70;;;;;;5051542;28;20178;-62
2024/03/07 09:53:52;;;;;;;13.07;8.18;;;9.60;93.30;;;;;;5051436;28;20198;-62
2024/03/07 09:56:20;;;;;;;11.95;8.45;;;9.90;92.50;;;;;;5051466;28;20240;-61
2024/03/07 09:58:49;;;;;;;16.33;8.57;;;10.10;90.80;;;;;;5039519;28;20178;-62
2024/03/07 10:01:19;;;;;;;12.63;8.60;;;10.20;90.80;;;;;;5045210;28;20178;-62
2024/03/07 10:03:47;;;;;;;10.65;8.63;;;10.30;90.20;;;;;;5050802;28;20192;-61
2024/03/07 10:06:14;;;;;;;9.18;7.45;;;10.50;90.90;;;;;;5051292;28;20200;-61
2024/03/07 10:08:42;;;;;;;14.13;9.35;;;10.80;90.10;;;;;;5050772;28;20254;-62
2024/03/07 10:11:09;;;;;;;14.43;8.45;;;11.00;89.60;;;;;;5049779;28;20182;-61
2024/03/07 10:13:35;;;;;;;9.60;7.63;;;10.80;82.40;;;;;;5052993;28;20702;-61
2024/03/07 10:16:01;;;;;;;15.30;9.23;;;10.60;84.20;;;;;;5054889;28;20456;-61
2024/03/07 10:18:27;;;;;;;14.32;8.88;;;10.20;81.40;;;;;;5054834;28;20171;-61
2024/03/07 10:20:55;;;;;;;12.60;8.00;;;9.90;83.80;;;;;;5055060;28;20166;-62
2024/03/07 10:23:21;;;;;;;10.95;8.10;;;9.50;84.70;;;;;;5054841;28;20435;-62
2024/03/07 10:25:47;;;;;;;14.98;8.30;;;9.30;86.10;;;;;;5054980;28;20595;-61
2024/03/07 10:28:14;;;;;;;12.35;8.75;;;9.30;86.90;;;;;;5054609;28;20174;-61
2024/03/07 10:30:41;;;;;;;11.70;7.85;;;9.10;86.60;;;;;;5054677;28;20186;-61
2024/03/07 10:33:07;;;;;;;10.75;8.75;;;8.90;86.70;;;;;;5054576;28;20182;-62
2024/03/07 10:35:33;;;;;;;15.77;11.35;;;8.70;90.30;;;;;;5054668;28;20198;-62
2024/03/07 10:38:06;;;;;;;21.13;11.70;;;8.60;89.20;;;;;;5054499;28;20698;-62
2024/03/07 10:40:32;;;;;;;10.63;7.82;;;8.60;89.30;;;;;;5054669;28;20170;-62
2024/03/07 10:43:02;;;;;;;10.60;8.27;;;8.40;89.00;;;;;;5054289;28;20177;-62
2024/03/07 10:45:30;;;;;;;15.23;9.77;;;8.00;90.20;;;;;;5077308;23;20196;-63
2024/03/07 10:47:58;;;;;;;14.10;7.88;;;8.20;90.70;;;;;;5072109;28;20193;-59
2024/03/07 10:50:47;;;;;;;15.00;9.57;;;8.60;90.00;;;;;;5074487;28;20184;-58
2024/03/07 10:53:31;;;;;;;12.52;8.48;;;9.10;88.10;;;;;;5074394;28;20174;-59
2024/03/07 10:56:24;;;;;;;12.32;8.63;;;9.30;87.60;;;;;;5074080;28;20562;-58
2024/03/07 10:59:11;;;;;;;13.18;8.85;;;8.90;85.20;;;;;;5074017;28;20162;-59
2024/03/07 11:01:59;;;;;;;8.10;6.38;;;8.40;87.50;;;;;;5074324;28;20165;-60
2024/03/07 11:04:26;;;;;;;12.90;7.65;;;7.90;89.50;;;;;;5074146;28;20254;-59
2024/03/07 11:06:52;;;;;;;10.23;8.00;;;6.70;90.60;;;;;;5074127;28;20196;-59
2024/03/07 11:09:41;;;;;;;8.47;6.70;;;6.60;91.30;;;;;;5073992;28;20689;-59
2024/03/07 11:12:06;;;;;;;15.55;8.52;;;6.80;93.00;;;;;;5073446;28;20427;-59
2024/03/07 11:14:34;;;;;;;16.15;8.90;;;7.10;91.60;;;;;;5074024;28;20254;-59
2024/03/07 11:17:00;;;;;;;13.85;8.90;;;7.20;90.80;;;;;;5073715;28;20277;-59
2024/03/07 11:19:31;;;;;;;12.55;8.90;;;7.70;91.10;;;;;;5055618;28;20646;-59
2024/03/07 11:21:59;;;;;;;11.82;8.18;;;8.20;91.20;;;;;;5074000;28;20582;-59
2024/03/07 11:24:35;;;;;;;9.88;7.20;;;8.50;90.60;;;;;;5073013;28;20166;-59
2024/03/07 11:27:04;;;;;;;10.95;8.52;;;8.80;88.60;;;;;;5073722;28;20229;-59
2024/03/07 11:29:52;;;;;;;15.77;10.00;;;8.90;87.80;;;;;;5073303;28;20193;-59
2024/03/07 11:32:20;;;;;;;14.25;8.35;;;9.00;87.90;;;;;;5073785;28;20178;-59
2024/03/07 11:34:47;;;;;;;14.73;8.13;;;8.90;90.40;;;;;;5055621;28;20530;-56
2024/03/07 11:37:43;;;;;;;13.32;9.02;;;8.80;88.60;;;;;;5073406;28;20204;-59
2024/03/07 11:40:18;;;;;;;17.23;9.05;;;8.70;88.30;;;;;;5057705;28;20546;-57
2024/03/07 11:42:47;;;;;;;13.35;9.60;;;9.10;90.10;;;;;;5072113;28;20208;-59
2024/03/07 11:45:24;;;;;;;13.77;9.43;;;9.80;88.50;;;;;;5072739;28;20646;-59
2024/03/07 11:48:09;;;;;;;12.00;8.40;;;10.40;85.50;;;;;;5073073;28;21097;-56
2024/03/07 11:50:36;;;;;;;14.07;9.38;;;10.50;82.80;;;;;;5083590;28;20407;-57
2024/03/07 11:53:05;;;;;;;13.67;8.10;;;10.50;83.50;;;;;;5082545;28;20176;-59
2024/03/07 11:55:50;;;;;;;14.05;8.90;;;10.30;82.30;;;;;;5081925;28;20425;-59
2024/03/07 11:58:21;;;;;;;15.40;9.60;;;9.40;88.10;;;;;;5065329;28;20165;-58
2024/03/07 12:00:48;;;;;;;12.40;7.95;;;9.50;86.00;;;;;;5082880;28;20422;-58
2024/03/07 12:03:21;;;;;;;13.70;8.63;;;10.00;85.00;;;;;;5081724;28;20191;-58
2024/03/07 12:05:53;;;;;;;11.47;8.13;;;10.50;84.00;;;;;;5082592;28;20492;-58
2024/03/07 12:08:22;;;;;;;10.00;7.57;;;10.60;82.60;;;;;;5079063;28;20410;-57
2024/03/07 12:10:53;;;;;;;9.60;7.33;;;10.80;83.00;;;;;;5082385;28;20953;-58
2024/03/07 12:13:20;;;;;;;11.33;10.13;;;11.00;81.70;;;;;;5093055;28;20470;-59
2024/03/07 12:15:47;;;;;;;12.60;8.20;;;11.00;82.80;;;;;;5092949;28;20482;-59
2024/03/07 12:18:17;;;;;;;17.52;10.25;;;10.90;82.30;;;;;;5092766;28;20494;-59
2024/03/07 12:20:50;;;;;;;17.00;10.52;;;10.60;82.00;;;;;;5092891;28;20172;-59
2024/03/07 12:23:19;;;;;;;13.98;9.27;;;10.40;81.30;;;;;;5092970;28;20214;-58
2024/03/07 12:25:48;;;;;;;12.63;9.73;;;10.00;81.50;;;;;;5092685;28;20895;-59
2024/03/07 12:28:17;;;;;;;16.65;10.10;;;9.50;83.60;;;;;;5092520;28;20169;-58
2024/03/07 12:30:46;;;;;;;15.93;10.32;;;9.20;84.10;;;;;;5092819;28;20176;-59
2024/03/07 12:33:16;;;;;;;13.20;9.70;;;9.10;85.40;;;;;;5092717;28;20169;-58
2024/03/07 12:35:50;;;;;;;15.85;10.70;;;9.00;86.30;;;;;;5074288;28;20213;-58
2024/03/07 12:38:17;;;;;;;13.60;8.02;;;8.90;87.40;;;;;;5092360;28;20169;-57
2024/03/07 12:40:43;;;;;;;11.48;6.75;;;9.10;85.90;;;;;;5092523;28;20259;-59
2024/03/07 12:43:19;;;;;;;15.60;8.55;;;9.00;85.80;;;;;;5092736;28;20181;-59
2024/03/07 12:45:51;;;;;;;11.80;9.07;;;9.10;87.40;;;;;;5092321;28;20204;-58
2024/03/07 12:48:23;;;;;;;11.45;7.28;;;9.30;86.40;;;;;;5092241;28;20642;-59
2024/03/07 12:50:55;;;;;;;10.38;7.50;;;9.10;89.00;;;;;;5092434;28;20176;-59